createdAt,value
2023-05-05T00:01:07.831Z,19.57
2023-05-05T00:03:37.372Z,19.44
2023-05-05T00:06:07.166Z,19.46
2023-05-05T00:08:36.831Z,19.48
2023-05-05T00:11:06.134Z,19.43
2023-05-05T00:13:35.437Z,19.39
2023-05-05T00:16:05.222Z,19.40
2023-05-05T00:18:34.885Z,19.37
2023-05-05T00:21:05.693Z,19.41
2023-05-05T00:23:34.872Z,19.46
2023-05-05T00:26:04.317Z,19.47
2023-05-05T00:28:33.585Z,19.49
2023-05-05T00:31:03.675Z,19.43
2023-05-05T00:33:32.720Z,19.40
2023-05-05T00:36:02.618Z,19.43
2023-05-05T00:38:31.664Z,19.50
2023-05-05T00:41:01.338Z,19.51
2023-05-05T00:43:30.632Z,19.50
2023-05-05T00:46:28.129Z,19.50
2023-05-05T00:48:59.011Z,19.45
2023-05-05T00:51:30.073Z,19.51
2023-05-05T00:54:00.257Z,19.58
2023-05-05T00:56:29.741Z,19.66
2023-05-05T00:59:00.387Z,19.80
2023-05-05T01:01:29.779Z,19.92
2023-05-05T01:03:58.991Z,19.99
2023-05-05T01:06:28.480Z,20.03
2023-05-05T01:09:13.908Z,20.04
2023-05-05T01:12:06.979Z,20.15
2023-05-05T01:14:46.645Z,20.24
2023-05-05T01:17:22.713Z,20.24
2023-05-05T01:20:08.768Z,20.32
2023-05-05T01:22:47.418Z,20.38
2023-05-05T01:25:47.617Z,20.71
2023-05-05T01:28:57.165Z,20.82
2023-05-05T01:31:58.063Z,20.82
2023-05-05T01:34:43.325Z,20.93
2023-05-05T01:37:30.770Z,21.10
2023-05-05T01:40:06.489Z,21.28
2023-05-05T01:42:38.638Z,21.30
2023-05-05T01:45:11.045Z,21.41
2023-05-05T01:47:44.187Z,21.63
2023-05-05T01:50:15.361Z,21.74
2023-05-05T01:52:46.435Z,21.64
2023-05-05T01:55:19.610Z,21.73
2023-05-05T01:57:52.557Z,21.62
2023-05-05T02:00:23.174Z,21.69
2023-05-05T02:02:53.299Z,22.12
2023-05-05T02:05:24.633Z,22.76
2023-05-05T02:07:59.312Z,23.29
2023-05-05T02:10:30.371Z,23.53
2023-05-05T02:13:03.041Z,23.73
2023-05-05T02:15:34.954Z,23.89
2023-05-05T02:18:06.884Z,24.39
2023-05-05T02:20:40.119Z,24.97
2023-05-05T02:23:09.919Z,24.89
2023-05-05T02:25:43.241Z,25.30
2023-05-05T02:28:44.553Z,25.85
2023-05-05T02:31:15.338Z,25.95
2023-05-05T02:33:45.938Z,26.10
2023-05-05T02:36:24.420Z,26.38
2023-05-05T02:39:05.868Z,26.62
2023-05-05T02:41:41.769Z,26.63
2023-05-05T02:44:21.413Z,26.91
2023-05-05T02:46:51.240Z,27.11
2023-05-05T02:49:21.312Z,27.21
2023-05-05T02:51:50.856Z,27.22
2023-05-05T02:54:26.284Z,26.87
2023-05-05T02:56:58.627Z,26.98
2023-05-05T03:00:06.989Z,26.70
2023-05-05T03:02:58.980Z,26.72
2023-05-05T03:05:35.998Z,26.71
2023-05-05T03:08:29.603Z,26.78
2023-05-05T03:11:16.507Z,26.48
2023-05-05T03:13:48.650Z,26.52
2023-05-05T03:16:24.027Z,26.56
2023-05-05T03:18:55.473Z,26.56
2023-05-05T03:21:25.759Z,26.44
2023-05-05T03:23:54.922Z,26.01
2023-05-05T03:26:25.847Z,26.41
2023-05-05T03:28:55.048Z,26.46
2023-05-05T03:31:29.858Z,26.29
2023-05-05T03:34:02.245Z,26.84
2023-05-05T03:36:38.092Z,26.63
2023-05-05T03:39:09.938Z,26.69
2023-05-05T03:41:39.960Z,27.07
2023-05-05T03:44:11.044Z,27.22
2023-05-05T03:46:40.584Z,27.54
2023-05-05T03:49:13.324Z,27.50
2023-05-05T03:51:44.523Z,27.53
2023-05-05T03:54:15.015Z,27.43
2023-05-05T03:56:44.648Z,27.85
2023-05-05T03:59:13.823Z,27.98
2023-05-05T04:01:43.976Z,28.17
2023-05-05T04:04:13.384Z,28.63
2023-05-05T04:06:43.709Z,28.47
2023-05-05T04:09:13.540Z,28.83
2023-05-05T04:11:43.330Z,28.16
2023-05-05T04:14:13.421Z,28.29
2023-05-05T04:16:47.806Z,28.14
2023-05-05T04:19:17.259Z,28.36
2023-05-05T04:21:47.128Z,28.85
2023-05-05T04:24:16.569Z,29.39
2023-05-05T04:26:46.941Z,29.59
2023-05-05T04:29:16.630Z,29.93
2023-05-05T04:31:46.376Z,30.09
2023-05-05T04:34:16.572Z,30.14
2023-05-05T04:36:46.551Z,30.05
2023-05-05T04:39:16.164Z,29.73
2023-05-05T04:41:45.783Z,29.11
2023-05-05T04:44:17.428Z,29.48
2023-05-05T04:46:47.008Z,30.30
2023-05-05T04:49:16.303Z,30.65
2023-05-05T04:51:45.837Z,30.67
2023-05-05T04:54:15.195Z,30.71
2023-05-05T04:56:44.941Z,30.34
2023-05-05T04:59:14.926Z,30.86
2023-05-05T05:01:44.398Z,31.55
2023-05-05T05:04:14.025Z,31.19
2023-05-05T05:06:43.675Z,30.80
2023-05-05T05:09:13.253Z,30.74
2023-05-05T05:11:42.754Z,30.76
2023-05-05T05:14:12.127Z,31.26
2023-05-05T05:16:41.692Z,31.45
2023-05-05T05:19:11.033Z,31.02
2023-05-05T05:21:40.813Z,31.06
2023-05-05T05:24:12.260Z,31.56
2023-05-05T05:26:41.670Z,31.71
2023-05-05T05:29:11.214Z,31.93
2023-05-05T05:31:41.229Z,32.27
2023-05-05T05:34:12.588Z,32.00
2023-05-05T05:36:43.744Z,32.13
2023-05-05T05:39:13.549Z,32.29
2023-05-05T05:41:44.215Z,31.17
2023-05-05T05:44:13.761Z,31.16
2023-05-05T05:46:43.967Z,30.58
2023-05-05T05:49:13.936Z,30.80
2023-05-05T05:51:43.817Z,31.49
2023-05-05T05:54:13.135Z,31.54
2023-05-05T05:56:43.949Z,31.16
2023-05-05T05:59:14.354Z,31.66
2023-05-05T06:01:44.439Z,31.63
2023-05-05T06:04:14.400Z,30.42
2023-05-05T06:06:44.087Z,30.09
2023-05-05T06:09:14.310Z,30.71
2023-05-05T06:11:44.862Z,30.72
2023-05-05T06:14:14.897Z,30.80
2023-05-05T06:16:45.390Z,31.35
2023-05-05T06:19:18.976Z,31.53
2023-05-05T06:21:48.709Z,31.42
2023-05-05T06:24:18.427Z,31.67
2023-05-05T06:26:48.138Z,31.39
2023-05-05T06:29:17.656Z,31.18
2023-05-05T06:31:47.324Z,31.21
2023-05-05T06:34:16.742Z,31.43
2023-05-05T06:36:46.227Z,31.82
2023-05-05T06:39:16.255Z,31.73
2023-05-05T06:41:45.680Z,31.58
2023-05-05T06:44:15.118Z,31.22
2023-05-05T06:46:44.896Z,31.40
2023-05-05T06:49:15.396Z,31.39
2023-05-05T06:51:44.935Z,31.41
2023-05-05T06:54:15.528Z,31.28
2023-05-05T06:56:45.564Z,31.26
2023-05-05T06:59:14.949Z,31.43
2023-05-05T07:01:44.602Z,31.35
2023-05-05T07:04:14.584Z,31.02
2023-05-05T07:06:44.513Z,30.87
2023-05-05T07:09:15.238Z,30.89
2023-05-05T07:11:46.866Z,31.13
2023-05-05T07:14:16.694Z,31.50
2023-05-05T07:16:45.994Z,31.49
2023-05-05T07:19:15.658Z,31.15
2023-05-05T07:24:14.200Z,31.03
2023-05-05T07:26:44.387Z,31.02
2023-05-05T07:29:14.436Z,30.71
2023-05-05T07:31:44.038Z,30.59
2023-05-05T07:34:13.586Z,30.70
2023-05-05T07:36:44.296Z,31.06
2023-05-05T07:39:16.042Z,30.74
2023-05-05T07:41:46.324Z,31.01
2023-05-05T07:44:15.568Z,31.27
2023-05-05T07:46:45.202Z,31.38
2023-05-05T07:49:14.468Z,31.19
2023-05-05T07:51:43.779Z,31.13
2023-05-05T07:54:14.292Z,31.26
2023-05-05T07:56:43.457Z,31.21
2023-05-05T07:59:14.108Z,31.11
2023-05-05T08:01:43.549Z,31.07
2023-05-05T08:04:12.814Z,31.06
2023-05-05T08:06:42.413Z,31.06
2023-05-05T08:09:12.233Z,30.92
2023-05-05T08:11:42.473Z,30.88
2023-05-05T08:14:12.227Z,30.59
2023-05-05T08:16:42.157Z,30.82
2023-05-05T08:19:25.108Z,30.76
2023-05-05T08:22:00.017Z,30.04
2023-05-05T08:24:30.800Z,29.94
2023-05-05T08:27:00.065Z,29.71
2023-05-05T08:29:29.517Z,29.44
2023-05-05T08:31:59.202Z,29.40
2023-05-05T08:34:28.620Z,29.41
2023-05-05T08:36:57.785Z,29.26
2023-05-05T08:39:27.352Z,29.26
2023-05-05T08:41:56.426Z,29.23
2023-05-05T08:44:28.066Z,29.06
2023-05-05T08:46:58.106Z,28.93
2023-05-05T08:49:28.880Z,28.94
2023-05-05T08:52:02.900Z,28.97
2023-05-05T08:54:36.523Z,28.93
2023-05-05T08:57:11.521Z,28.83
2023-05-05T08:59:42.638Z,28.85
2023-05-05T09:02:13.972Z,28.67
2023-05-05T09:04:44.387Z,28.81
2023-05-05T09:07:14.116Z,28.83
2023-05-05T09:09:44.155Z,28.76
2023-05-05T09:12:18.990Z,28.52
2023-05-05T09:14:48.828Z,28.57
2023-05-05T09:17:28.113Z,28.52
2023-05-05T09:20:11.549Z,28.41
2023-05-05T09:22:43.737Z,28.32
2023-05-05T09:25:17.700Z,28.34
2023-05-05T09:27:49.925Z,28.44
2023-05-05T09:30:25.734Z,28.37
2023-05-05T09:32:56.736Z,28.25
2023-05-05T09:35:28.142Z,28.25
2023-05-05T09:37:58.071Z,28.29
2023-05-05T09:40:27.935Z,28.31
2023-05-05T09:43:04.043Z,28.44
2023-05-05T09:45:41.318Z,28.40
2023-05-05T09:48:29.266Z,28.40
2023-05-05T09:51:00.114Z,28.49
2023-05-05T09:53:41.184Z,28.45
2023-05-05T09:56:11.288Z,28.37
2023-05-05T09:58:40.870Z,28.30
2023-05-05T10:01:24.329Z,28.25
2023-05-05T10:03:53.812Z,28.19
2023-05-05T10:06:41.358Z,28.22
2023-05-05T10:09:10.585Z,28.11
2023-05-05T10:11:42.997Z,28.00
2023-05-05T10:14:18.977Z,27.85
2023-05-05T10:16:51.773Z,27.82
2023-05-05T10:19:23.263Z,27.84
2023-05-05T10:22:00.834Z,27.89
2023-05-05T10:24:44.351Z,27.91
2023-05-05T10:27:22.086Z,27.89
2023-05-05T10:30:08.275Z,27.82
2023-05-05T10:33:07.912Z,27.78
2023-05-05T10:35:53.737Z,27.62
2023-05-05T10:38:26.217Z,27.70
2023-05-05T10:40:56.637Z,27.76
2023-05-05T10:43:26.917Z,27.72
2023-05-05T10:45:57.542Z,27.70
2023-05-05T10:48:52.376Z,27.75
2023-05-05T10:51:41.183Z,27.73
2023-05-05T10:54:48.023Z,27.66
2023-05-05T10:57:20.173Z,27.58
2023-05-05T10:59:49.804Z,27.56
2023-05-05T11:02:29.705Z,27.54
2023-05-05T11:05:05.763Z,27.56
2023-05-05T11:07:38.437Z,27.41
2023-05-05T11:10:10.341Z,27.41
2023-05-05T11:13:12.621Z,27.44
2023-05-05T11:15:42.816Z,27.46
2023-05-05T11:18:40.309Z,27.46
2023-05-05T11:21:19.568Z,27.47
2023-05-05T11:23:51.022Z,27.45
2023-05-05T11:26:41.638Z,27.49
2023-05-05T11:29:11.341Z,27.50
2023-05-05T11:31:40.574Z,27.56
2023-05-05T11:34:29.491Z,27.47
2023-05-05T11:37:06.089Z,27.44
2023-05-05T11:39:58.298Z,27.34
2023-05-05T11:42:28.271Z,27.30
2023-05-05T11:44:57.965Z,27.31
2023-05-05T11:47:29.471Z,27.26
2023-05-05T11:49:59.333Z,27.21
2023-05-05T11:52:29.246Z,27.24
2023-05-05T11:55:02.482Z,27.26
2023-05-05T11:57:32.433Z,27.27
2023-05-05T12:00:05.344Z,27.31
2023-05-05T12:02:34.883Z,27.30
2023-05-05T12:05:04.498Z,27.29
2023-05-05T12:07:35.095Z,27.22
2023-05-05T12:10:04.735Z,27.17
2023-05-05T12:12:41.985Z,27.13
2023-05-05T12:15:11.814Z,27.04
2023-05-05T12:17:45.101Z,27.05
2023-05-05T12:20:15.131Z,27.04
2023-05-05T12:22:44.798Z,27.00
2023-05-05T12:25:13.998Z,27.00
2023-05-05T12:27:54.444Z,27.00
2023-05-05T12:30:24.675Z,26.99
2023-05-05T12:33:03.204Z,27.00
2023-05-05T12:35:33.471Z,27.00
2023-05-05T12:38:03.467Z,27.01
2023-05-05T12:40:50.613Z,27.03
2023-05-05T12:43:31.337Z,26.97
2023-05-05T12:46:06.736Z,26.97
2023-05-05T12:48:39.085Z,26.94
2023-05-05T12:51:20.952Z,26.92
2023-05-05T12:54:03.171Z,26.92
2023-05-05T12:56:36.685Z,26.95
2023-05-05T12:59:14.133Z,26.94
2023-05-05T13:01:57.405Z,26.94
2023-05-05T13:04:28.607Z,26.93
2023-05-05T13:07:15.385Z,26.88
2023-05-05T13:09:45.197Z,26.87
2023-05-05T13:12:15.110Z,26.81
2023-05-05T13:14:44.841Z,26.81
2023-05-05T13:17:15.112Z,26.74
2023-05-05T13:19:47.329Z,26.67
2023-05-05T13:22:16.897Z,26.60
2023-05-05T13:24:52.457Z,26.54
2023-05-05T13:27:23.168Z,26.53
2023-05-05T13:29:52.823Z,26.50
2023-05-05T13:32:23.271Z,26.46
2023-05-05T13:34:53.033Z,26.43
2023-05-05T13:37:22.566Z,26.42
2023-05-05T13:39:52.613Z,26.38
2023-05-05T13:42:21.708Z,26.32
2023-05-05T13:44:51.454Z,26.32
2023-05-05T13:47:20.673Z,26.28
2023-05-05T13:49:50.391Z,26.20
2023-05-05T13:52:19.460Z,26.15
2023-05-05T13:54:49.263Z,26.08
2023-05-05T13:57:18.583Z,26.04
2023-05-05T13:59:48.463Z,26.02
2023-05-05T14:02:17.869Z,26.00
2023-05-05T14:04:47.416Z,26.03
2023-05-05T14:07:17.040Z,26.01
2023-05-05T14:09:55.289Z,26.01
2023-05-05T14:12:24.733Z,26.00
2023-05-05T14:14:53.926Z,26.01
2023-05-05T14:17:23.437Z,26.02
2023-05-05T14:19:52.993Z,26.02
2023-05-05T14:22:22.535Z,26.02
2023-05-05T14:24:52.002Z,26.03
2023-05-05T14:27:21.986Z,26.03
2023-05-05T14:29:51.513Z,26.02
2023-05-05T14:32:21.863Z,26.00
2023-05-05T14:34:51.002Z,25.98
2023-05-05T14:37:20.694Z,25.99
2023-05-05T14:39:50.106Z,25.98
2023-05-05T14:42:19.613Z,25.96
2023-05-05T14:44:49.168Z,25.94
2023-05-05T14:47:18.623Z,25.92
2023-05-05T14:49:48.157Z,25.90
2023-05-05T14:52:17.741Z,25.88
2023-05-05T14:54:47.627Z,25.86
2023-05-05T14:57:17.445Z,25.84
2023-05-05T14:59:46.842Z,25.82
2023-05-05T15:02:15.990Z,25.80
2023-05-05T15:04:45.252Z,25.79
2023-05-05T15:07:15.070Z,25.77
2023-05-05T15:09:44.622Z,25.75
2023-05-05T15:12:13.946Z,25.76
2023-05-05T15:14:43.917Z,25.74
2023-05-05T15:17:13.086Z,25.71
2023-05-05T15:19:42.721Z,25.69
2023-05-05T15:22:11.908Z,25.67
2023-05-05T15:24:41.130Z,25.66
2023-05-05T15:27:10.416Z,25.65
2023-05-05T15:29:40.362Z,25.63
2023-05-05T15:32:09.416Z,25.58
2023-05-05T15:34:39.337Z,25.57
2023-05-05T15:37:08.700Z,25.55
2023-05-05T15:39:38.050Z,25.52
2023-05-05T15:42:08.085Z,25.51
2023-05-05T15:44:37.757Z,25.49
2023-05-05T15:47:09.110Z,25.47
2023-05-05T15:49:38.723Z,25.48
2023-05-05T15:52:08.995Z,25.48
2023-05-05T15:54:38.750Z,25.48
2023-05-05T15:57:07.909Z,25.52
2023-05-05T15:59:38.301Z,25.52
2023-05-05T16:02:07.920Z,25.49
2023-05-05T16:04:37.405Z,25.53
2023-05-05T16:07:07.792Z,25.51
2023-05-05T16:09:38.084Z,25.50
2023-05-05T16:12:07.571Z,25.49
2023-05-05T16:14:37.199Z,25.49
2023-05-05T16:17:07.070Z,25.47
2023-05-05T16:19:37.142Z,25.49
2023-05-05T16:22:06.724Z,25.48
2023-05-05T16:24:35.871Z,25.47
2023-05-05T16:27:05.717Z,25.48
2023-05-05T16:29:35.040Z,25.46
2023-05-05T16:32:04.104Z,25.46
2023-05-05T16:34:33.668Z,25.46
2023-05-05T16:37:03.011Z,25.43
2023-05-05T16:39:34.120Z,25.46
2023-05-05T16:42:04.539Z,25.45
2023-05-05T16:44:34.014Z,25.41
2023-05-05T16:47:03.176Z,25.40
2023-05-05T16:49:32.826Z,25.36
2023-05-05T16:52:02.545Z,25.35
2023-05-05T16:54:31.869Z,25.34
2023-05-05T16:57:01.538Z,25.33
2023-05-05T16:59:31.627Z,25.33
2023-05-05T17:02:01.304Z,25.29
2023-05-05T17:04:31.074Z,25.28
2023-05-05T17:07:00.252Z,25.22
2023-05-05T17:09:29.378Z,25.22
2023-05-05T17:11:58.854Z,25.20
2023-05-05T17:14:28.365Z,25.19
2023-05-05T17:16:58.185Z,25.18
2023-05-05T17:19:27.851Z,25.18
2023-05-05T17:21:57.168Z,25.11
2023-05-05T17:24:26.991Z,25.11
2023-05-05T17:26:57.438Z,25.07
2023-05-05T17:29:27.589Z,25.04
2023-05-05T17:31:56.812Z,25.04
2023-05-05T17:34:26.191Z,25.03
2023-05-05T17:36:55.588Z,25.00
2023-05-05T17:39:24.849Z,24.98
2023-05-05T17:41:54.209Z,24.96
2023-05-05T17:44:23.301Z,24.95
2023-05-05T17:46:53.317Z,24.94
2023-05-05T17:49:22.570Z,24.91
2023-05-05T17:51:51.938Z,24.91
2023-05-05T17:54:21.161Z,24.90
2023-05-05T17:56:50.545Z,24.90
2023-05-05T17:59:19.713Z,24.89
2023-05-05T18:01:49.719Z,24.88
2023-05-05T18:04:19.103Z,24.87
2023-05-05T18:06:48.247Z,24.84
2023-05-05T18:09:18.395Z,24.82
2023-05-05T18:11:47.670Z,24.80
2023-05-05T18:14:18.723Z,24.77
2023-05-05T18:16:51.393Z,24.72
2023-05-05T18:19:24.992Z,24.71
2023-05-05T18:21:58.534Z,24.72
2023-05-05T18:24:29.237Z,24.68
2023-05-05T18:26:59.350Z,24.64
2023-05-05T18:29:29.678Z,24.65
2023-05-05T18:31:59.032Z,24.60
2023-05-05T18:34:28.428Z,24.56
2023-05-05T18:36:58.504Z,24.56
2023-05-05T18:39:27.854Z,24.55
2023-05-05T18:41:56.963Z,24.53
2023-05-05T18:44:26.721Z,24.53
2023-05-05T18:46:56.001Z,24.52
2023-05-05T18:49:26.221Z,24.50
2023-05-05T18:51:57.713Z,24.48
2023-05-05T18:54:27.107Z,24.45
2023-05-05T18:56:56.231Z,24.44
2023-05-05T18:59:25.990Z,24.46
2023-05-05T19:01:55.747Z,24.48
2023-05-05T19:04:31.476Z,24.47
2023-05-05T19:07:02.150Z,24.44
2023-05-05T19:09:31.685Z,24.43
2023-05-05T19:12:00.840Z,24.42
2023-05-05T19:14:30.788Z,24.40
2023-05-05T19:17:00.550Z,24.41
2023-05-05T19:19:30.012Z,24.39
2023-05-05T19:22:00.666Z,24.38
2023-05-05T19:24:31.045Z,24.39
2023-05-05T19:27:00.382Z,24.38
2023-05-05T19:29:32.058Z,24.37
2023-05-05T19:32:03.579Z,24.36
2023-05-05T19:34:32.962Z,24.32
2023-05-05T19:37:02.456Z,24.30
2023-05-05T19:39:31.806Z,24.28
2023-05-05T19:42:00.880Z,24.26
2023-05-05T19:44:30.648Z,24.28
2023-05-05T19:47:00.032Z,24.29
2023-05-05T19:49:29.174Z,24.29
2023-05-05T19:52:00.020Z,24.29
2023-05-05T19:54:30.275Z,24.28
2023-05-05T19:56:59.612Z,24.27
2023-05-05T19:59:30.023Z,24.27
2023-05-05T20:02:00.008Z,24.24
2023-05-05T20:04:29.425Z,24.25
2023-05-05T20:06:58.857Z,24.27
2023-05-05T20:09:28.738Z,24.28
2023-05-05T20:12:00.483Z,24.29
2023-05-05T20:14:29.853Z,24.26
2023-05-05T20:16:59.310Z,24.25
2023-05-05T20:19:28.572Z,24.20
2023-05-05T20:21:58.343Z,24.21
2023-05-05T20:24:29.575Z,24.18
2023-05-05T20:26:59.201Z,24.17
2023-05-05T20:29:28.364Z,24.16
2023-05-05T20:32:02.491Z,24.20
2023-05-05T20:34:32.373Z,24.20
2023-05-05T20:37:01.891Z,24.17
2023-05-05T20:39:35.004Z,24.15
2023-05-05T20:42:04.485Z,24.14
2023-05-05T20:44:34.061Z,24.12
2023-05-05T20:47:04.020Z,24.12
2023-05-05T20:49:33.145Z,24.10
2023-05-05T20:52:02.412Z,24.08
2023-05-05T20:54:35.209Z,24.04
2023-05-05T20:57:04.617Z,24.07
2023-05-05T20:59:34.056Z,24.06
2023-05-05T21:02:03.607Z,24.02
2023-05-05T21:04:33.138Z,24.00
2023-05-05T21:07:02.297Z,23.94
2023-05-05T21:09:32.606Z,23.93
2023-05-05T21:12:02.128Z,23.89
2023-05-05T21:14:31.303Z,23.86
2023-05-05T21:17:00.635Z,23.85
2023-05-05T21:19:29.772Z,23.81
2023-05-05T21:22:00.196Z,23.79
2023-05-05T21:24:29.578Z,23.75
2023-05-05T21:26:58.761Z,23.71
2023-05-05T21:29:27.937Z,23.69
2023-05-05T21:31:57.435Z,23.67
2023-05-05T21:34:26.973Z,23.66
2023-05-05T21:36:56.367Z,23.65
2023-05-05T21:39:25.796Z,23.67
2023-05-05T21:41:55.503Z,23.66
2023-05-05T21:44:26.454Z,23.67
2023-05-05T21:46:55.902Z,23.69
2023-05-05T21:49:25.364Z,23.70
2023-05-05T21:51:54.364Z,23.72
2023-05-05T21:54:23.658Z,23.74
2023-05-05T21:56:52.900Z,23.73
2023-05-05T21:59:22.482Z,23.74
2023-05-05T22:01:51.989Z,23.77
2023-05-05T22:04:21.182Z,23.76
2023-05-05T22:06:50.188Z,23.74
2023-05-05T22:09:19.657Z,23.73
2023-05-05T22:11:48.780Z,23.71
2023-05-05T22:14:18.182Z,23.67
2023-05-05T22:16:47.647Z,23.66
2023-05-05T22:19:17.436Z,23.64
2023-05-05T22:21:46.559Z,23.58
2023-05-05T22:24:15.852Z,23.58
2023-05-05T22:26:45.013Z,23.58
2023-05-05T22:29:14.594Z,23.57
2023-05-05T22:31:43.703Z,23.53
2023-05-05T22:34:12.978Z,23.50
2023-05-05T22:36:43.373Z,23.51
2023-05-05T22:39:12.826Z,23.52
2023-05-05T22:41:42.301Z,23.50
2023-05-05T22:44:11.504Z,23.52
2023-05-05T22:46:40.610Z,23.51
2023-05-05T22:49:10.625Z,23.52
2023-05-05T22:51:40.273Z,23.49
2023-05-05T22:54:09.452Z,23.49
2023-05-05T22:56:38.864Z,23.47
2023-05-05T22:59:08.127Z,23.45
2023-05-05T23:01:37.872Z,23.45
2023-05-05T23:04:07.748Z,23.44
2023-05-05T23:06:37.116Z,23.45
2023-05-05T23:09:06.478Z,23.43
2023-05-05T23:11:35.678Z,23.44
2023-05-05T23:14:04.970Z,23.40
2023-05-05T23:16:34.692Z,23.38
2023-05-05T23:19:03.811Z,23.34
2023-05-05T23:21:38.880Z,23.33
2023-05-05T23:24:15.033Z,23.29
2023-05-05T23:26:44.686Z,23.27
2023-05-05T23:29:13.955Z,23.26
2023-05-05T23:31:43.148Z,23.24
2023-05-05T23:34:12.637Z,23.26
2023-05-05T23:36:41.741Z,23.24
2023-05-05T23:39:11.385Z,23.23
2023-05-05T23:41:40.756Z,23.23
2023-05-05T23:44:09.966Z,23.22
2023-05-05T23:46:39.570Z,23.21
2023-05-05T23:49:08.997Z,23.19
2023-05-05T23:51:38.581Z,23.19
2023-05-05T23:54:07.743Z,23.19
2023-05-05T23:56:37.574Z,23.13
2023-05-05T23:59:07.328Z,23.11
